createdAt,value
2018-05-18T00:01:12.121Z,12.57
2018-05-18T00:03:40.556Z,12.52
2018-05-18T00:06:09.016Z,12.49
2018-05-18T00:08:37.436Z,12.49
2018-05-18T00:11:05.873Z,12.40
2018-05-18T00:13:34.346Z,12.37
2018-05-18T00:16:02.773Z,12.38
2018-05-18T00:18:31.212Z,12.27
2018-05-18T00:20:59.816Z,12.29
2018-05-18T00:23:28.246Z,12.31
2018-05-18T00:25:56.668Z,12.32
2018-05-18T00:28:25.149Z,12.34
2018-05-18T00:30:53.573Z,12.23
2018-05-18T00:33:22.005Z,12.23
2018-05-18T00:35:50.474Z,12.19
2018-05-18T00:38:18.909Z,12.18
2018-05-18T00:40:47.335Z,12.20
2018-05-18T00:43:15.801Z,12.22
2018-05-18T00:45:44.233Z,12.22
2018-05-18T00:48:12.686Z,12.16
2018-05-18T00:50:41.152Z,12.24
2018-05-18T00:53:09.576Z,12.19
2018-05-18T00:55:40.980Z,12.15
2018-05-18T00:58:09.467Z,12.23
2018-05-18T01:00:37.896Z,12.26
2018-05-18T01:03:06.334Z,12.17
2018-05-18T01:05:34.813Z,12.13
2018-05-18T01:08:03.299Z,12.04
2018-05-18T01:10:31.731Z,12.08
2018-05-18T01:13:00.209Z,12.05
2018-05-18T01:15:28.642Z,12.08
2018-05-18T01:17:57.063Z,11.94
2018-05-18T01:20:25.546Z,11.90
2018-05-18T01:22:53.973Z,11.89
2018-05-18T01:25:22.540Z,11.90
2018-05-18T01:27:51.015Z,11.97
2018-05-18T01:30:19.449Z,11.96
2018-05-18T01:32:47.876Z,11.95
2018-05-18T01:35:16.346Z,11.95
2018-05-18T01:37:44.779Z,11.93
2018-05-18T01:40:13.591Z,11.89
2018-05-18T01:42:42.070Z,11.95
2018-05-18T01:45:10.500Z,11.92
2018-05-18T01:47:38.933Z,11.92
2018-05-18T01:50:07.420Z,11.87
2018-05-18T01:52:35.841Z,11.90
2018-05-18T01:55:04.295Z,11.94
2018-05-18T01:57:32.752Z,11.85
2018-05-18T02:00:01.185Z,11.83
2018-05-18T02:02:29.619Z,11.79
2018-05-18T02:04:58.085Z,11.73
2018-05-18T02:07:26.509Z,11.67
2018-05-18T02:09:54.930Z,11.72
2018-05-18T02:12:23.404Z,11.69
2018-05-18T02:14:51.824Z,11.72
2018-05-18T02:17:20.263Z,11.59
2018-05-18T02:19:48.744Z,11.68
2018-05-18T02:22:17.168Z,11.67
2018-05-18T02:24:45.589Z,11.56
2018-05-18T02:27:14.069Z,11.64
2018-05-18T02:29:42.503Z,11.61
2018-05-18T02:32:10.917Z,11.65
2018-05-18T02:34:39.404Z,11.59
2018-05-18T02:37:07.829Z,11.56
2018-05-18T02:39:36.264Z,11.57
2018-05-18T02:42:04.767Z,11.60
2018-05-18T02:44:33.188Z,11.58
2018-05-18T02:47:01.618Z,11.65
2018-05-18T02:49:30.092Z,11.66
2018-05-18T02:51:58.533Z,11.63
2018-05-18T02:54:26.971Z,11.51
2018-05-18T02:56:55.428Z,11.54
2018-05-18T02:59:23.848Z,11.58
2018-05-18T03:01:52.284Z,11.53
2018-05-18T03:04:20.761Z,11.53
2018-05-18T03:06:49.197Z,11.44
2018-05-18T03:09:17.659Z,11.47
2018-05-18T03:11:46.121Z,11.51
2018-05-18T03:14:14.555Z,11.47
2018-05-18T03:16:42.986Z,11.47
2018-05-18T03:19:11.449Z,11.44
2018-05-18T03:21:39.873Z,11.48
2018-05-18T03:24:08.298Z,11.43
2018-05-18T03:26:36.761Z,11.36
2018-05-18T03:29:05.204Z,11.36
2018-05-18T03:31:33.630Z,11.42
2018-05-18T03:34:02.123Z,11.44
2018-05-18T03:36:30.552Z,11.37
2018-05-18T03:38:58.984Z,11.47
2018-05-18T03:41:27.452Z,11.44
2018-05-18T03:43:55.873Z,11.44
2018-05-18T03:46:24.311Z,11.42
2018-05-18T03:48:53.016Z,11.43
2018-05-18T03:51:21.459Z,11.36
2018-05-18T03:53:49.892Z,11.38
2018-05-18T03:56:18.352Z,11.32
2018-05-18T03:58:46.780Z,11.30
2018-05-18T04:01:26.924Z,11.29
2018-05-18T04:04:07.111Z,11.27
2018-05-18T04:06:47.280Z,11.26
2018-05-18T04:09:15.708Z,11.29
2018-05-18T04:11:44.129Z,11.24
2018-05-18T04:14:12.604Z,11.25
2018-05-18T04:16:41.041Z,11.26
2018-05-18T04:19:09.461Z,11.24
2018-05-18T04:21:37.936Z,11.23
2018-05-18T04:24:06.364Z,11.25
2018-05-18T04:26:34.793Z,11.24
2018-05-18T04:29:03.256Z,11.24
2018-05-18T04:31:31.686Z,11.24
2018-05-18T04:34:00.119Z,11.25
2018-05-18T04:36:28.600Z,11.23
2018-05-18T04:38:57.044Z,11.22
2018-05-18T04:41:25.466Z,11.25
2018-05-18T04:43:53.932Z,11.18
2018-05-18T04:46:22.363Z,11.20
2018-05-18T04:48:50.793Z,11.15
2018-05-18T04:51:19.256Z,11.16
2018-05-18T04:53:47.676Z,11.17
2018-05-18T04:56:16.118Z,11.26
2018-05-18T04:58:44.668Z,11.18
2018-05-18T05:01:13.044Z,11.17
2018-05-18T05:03:41.472Z,11.16
2018-05-18T05:06:09.949Z,11.15
2018-05-18T05:08:38.387Z,11.26
2018-05-18T05:11:06.815Z,11.27
2018-05-18T05:13:35.307Z,11.26
2018-05-18T05:16:03.750Z,11.23
2018-05-18T05:18:32.232Z,11.19
2018-05-18T05:21:00.700Z,11.22
2018-05-18T05:23:29.131Z,11.18
2018-05-18T05:25:57.559Z,11.22
2018-05-18T05:28:26.043Z,11.21
2018-05-18T05:30:54.469Z,11.13
2018-05-18T05:33:22.889Z,11.22
2018-05-18T05:35:51.386Z,11.27
2018-05-18T05:38:19.808Z,11.18
2018-05-18T05:40:48.229Z,11.13
2018-05-18T05:43:16.707Z,11.07
2018-05-18T05:45:45.127Z,11.22
2018-05-18T05:48:13.560Z,11.25
2018-05-18T05:50:42.045Z,11.24
2018-05-18T05:53:10.470Z,11.21
2018-05-18T05:55:38.897Z,11.12
2018-05-18T05:58:07.375Z,11.05
2018-05-18T06:00:35.803Z,11.12
2018-05-18T06:03:04.229Z,11.12
2018-05-18T06:05:33.414Z,11.06
2018-05-18T06:08:01.848Z,11.02
2018-05-18T06:10:30.288Z,11.02
2018-05-18T06:12:58.761Z,11.03
2018-05-18T06:15:27.188Z,11.12
2018-05-18T06:17:55.674Z,11.17
2018-05-18T06:20:24.152Z,11.17
2018-05-18T06:22:52.592Z,11.12
2018-05-18T06:25:21.042Z,11.10
2018-05-18T06:27:49.523Z,11.01
2018-05-18T06:30:17.944Z,10.98
2018-05-18T06:32:46.376Z,11.04
2018-05-18T06:35:14.970Z,11.02
2018-05-18T06:37:43.353Z,11.05
2018-05-18T06:40:12.640Z,11.10
2018-05-18T06:42:41.166Z,10.98
2018-05-18T06:45:09.593Z,11.08
2018-05-18T06:47:38.076Z,11.14
2018-05-18T06:50:06.581Z,11.15
2018-05-18T06:52:35.099Z,11.15
2018-05-18T06:55:03.511Z,11.09
2018-05-18T06:57:31.989Z,11.19
2018-05-18T07:00:00.420Z,11.19
2018-05-18T07:02:28.854Z,11.18
2018-05-18T07:04:57.333Z,11.05
2018-05-18T07:07:26.322Z,11.04
2018-05-18T07:09:54.776Z,11.00
2018-05-18T07:12:23.240Z,11.07
2018-05-18T07:14:51.676Z,11.04
2018-05-18T07:17:20.107Z,11.11
2018-05-18T07:19:48.589Z,11.18
2018-05-18T07:22:17.019Z,11.31
2018-05-18T07:24:45.445Z,11.33
2018-05-18T07:27:13.946Z,11.47
2018-05-18T07:29:42.374Z,11.43
2018-05-18T07:32:10.818Z,11.41
2018-05-18T07:34:39.329Z,11.45
2018-05-18T07:37:07.758Z,11.50
2018-05-18T07:39:36.182Z,11.52
2018-05-18T07:42:04.681Z,11.61
2018-05-18T07:44:33.106Z,11.70
2018-05-18T07:47:01.533Z,11.78
2018-05-18T07:49:30.052Z,11.95
2018-05-18T07:51:58.472Z,11.91
2018-05-18T07:54:26.892Z,12.03
2018-05-18T07:56:55.373Z,11.97
2018-05-18T07:59:23.868Z,11.96
2018-05-18T08:01:52.297Z,12.04
2018-05-18T08:04:20.760Z,12.04
2018-05-18T08:06:49.204Z,12.05
2018-05-18T08:09:17.636Z,12.08
2018-05-18T08:11:46.108Z,12.09
2018-05-18T08:14:14.532Z,12.13
2018-05-18T08:16:42.971Z,12.12
2018-05-18T08:19:11.452Z,12.08
2018-05-18T08:24:14.493Z,11.99
2018-05-18T08:26:43.537Z,12.04
2018-05-18T08:29:23.879Z,12.13
2018-05-18T08:31:52.318Z,12.17
2018-05-18T08:34:20.761Z,12.22
2018-05-18T08:36:49.220Z,12.32
2018-05-18T08:39:17.655Z,12.35
2018-05-18T08:41:46.159Z,12.41
2018-05-18T08:44:14.590Z,12.40
2018-05-18T08:46:43.023Z,12.35
2018-05-18T08:49:11.443Z,12.28
2018-05-18T08:51:39.940Z,12.37
2018-05-18T08:54:08.393Z,12.40
2018-05-18T08:56:36.828Z,12.48
2018-05-18T08:59:05.302Z,12.57
2018-05-18T09:01:33.733Z,12.58
2018-05-18T09:04:02.162Z,12.36
2018-05-18T09:06:30.625Z,12.35
2018-05-18T09:08:59.159Z,12.40
2018-05-18T09:11:27.540Z,12.40
2018-05-18T09:13:56.004Z,12.35
2018-05-18T09:16:24.433Z,12.37
2018-05-18T09:18:52.855Z,12.38
2018-05-18T09:21:21.312Z,12.38
2018-05-18T09:23:49.736Z,12.40
2018-05-18T09:26:18.168Z,12.31
2018-05-18T09:28:46.784Z,12.39
2018-05-18T09:31:15.221Z,12.51
2018-05-18T09:33:43.632Z,12.60
2018-05-18T09:36:12.149Z,12.56
2018-05-18T09:38:40.581Z,12.64
2018-05-18T09:41:09.006Z,12.67
2018-05-18T09:43:37.464Z,12.62
2018-05-18T09:46:05.901Z,12.62
2018-05-18T09:48:34.341Z,12.61
2018-05-18T09:51:02.824Z,12.64
2018-05-18T09:53:31.248Z,12.77
2018-05-18T09:55:59.684Z,12.77
2018-05-18T09:58:28.150Z,12.80
2018-05-18T10:00:56.576Z,12.71
2018-05-18T10:03:25.004Z,12.67
2018-05-18T10:05:53.473Z,12.76
2018-05-18T10:08:21.901Z,12.70
2018-05-18T10:10:50.329Z,12.77
2018-05-18T10:13:18.798Z,12.73
2018-05-18T10:15:47.221Z,12.67
2018-05-18T10:18:15.641Z,12.69
2018-05-18T10:20:44.106Z,12.79
2018-05-18T10:23:12.524Z,12.85
2018-05-18T10:25:40.955Z,12.85
2018-05-18T10:28:09.433Z,12.85
2018-05-18T10:30:37.860Z,12.96
2018-05-18T10:33:06.316Z,13.04
2018-05-18T10:35:34.796Z,13.08
2018-05-18T10:38:03.214Z,13.16
2018-05-18T10:40:31.987Z,13.22
2018-05-18T10:43:00.464Z,13.21
2018-05-18T10:45:28.976Z,13.22
2018-05-18T10:47:57.356Z,13.30
2018-05-18T10:50:25.853Z,13.30
2018-05-18T10:52:54.272Z,13.32
2018-05-18T10:55:22.729Z,13.33
2018-05-18T10:57:51.188Z,13.32
2018-05-18T11:00:19.618Z,13.49
2018-05-18T11:02:48.044Z,13.57
2018-05-18T11:05:16.583Z,13.71
2018-05-18T11:07:44.968Z,13.63
2018-05-18T11:10:13.388Z,13.60
2018-05-18T11:12:41.856Z,13.72
2018-05-18T11:15:10.295Z,13.87
2018-05-18T11:17:38.741Z,13.85
2018-05-18T11:20:07.339Z,13.98
2018-05-18T11:22:35.726Z,14.14
2018-05-18T11:25:04.216Z,14.30
2018-05-18T11:27:32.689Z,14.47
2018-05-18T11:30:01.119Z,14.52
2018-05-18T11:32:29.549Z,14.61
2018-05-18T11:34:58.028Z,14.61
2018-05-18T11:37:26.448Z,14.59
2018-05-18T11:39:54.873Z,14.59
2018-05-18T11:42:23.363Z,14.65
2018-05-18T11:44:51.790Z,14.66
2018-05-18T11:47:20.222Z,14.64
2018-05-18T11:49:48.713Z,14.72
2018-05-18T11:52:17.127Z,14.78
2018-05-18T11:54:45.600Z,14.81
2018-05-18T11:57:14.062Z,14.78
2018-05-18T11:59:42.477Z,14.67
2018-05-18T12:02:10.917Z,14.61
2018-05-18T12:04:39.398Z,14.57
2018-05-18T12:07:07.836Z,14.56
2018-05-18T12:09:36.272Z,14.47
2018-05-18T12:12:04.729Z,14.50
2018-05-18T12:14:33.171Z,14.56
2018-05-18T12:17:01.608Z,14.51
2018-05-18T12:19:30.109Z,14.55
2018-05-18T12:21:58.539Z,14.53
2018-05-18T12:24:27.000Z,14.66
2018-05-18T12:26:55.476Z,14.71
2018-05-18T12:29:23.896Z,14.67
2018-05-18T12:31:52.323Z,14.81
2018-05-18T12:34:20.809Z,14.84
2018-05-18T12:36:49.216Z,14.90
2018-05-18T12:39:17.642Z,14.97
2018-05-18T12:41:46.120Z,15.11
2018-05-18T12:44:14.540Z,15.23
2018-05-18T12:46:43.211Z,15.31
2018-05-18T12:49:11.693Z,15.21
2018-05-18T12:51:40.132Z,15.34
2018-05-18T12:54:08.589Z,15.42
2018-05-18T12:56:37.097Z,15.31
2018-05-18T12:59:05.529Z,15.42
2018-05-18T13:01:33.946Z,15.36
2018-05-18T13:04:02.400Z,15.41
2018-05-18T13:06:30.832Z,15.34
2018-05-18T13:08:59.294Z,15.20
2018-05-18T13:11:27.777Z,15.22
2018-05-18T13:13:56.196Z,15.26
2018-05-18T13:16:24.633Z,15.30
2018-05-18T13:18:53.116Z,15.26
2018-05-18T13:21:21.614Z,15.22
2018-05-18T13:23:50.041Z,14.98
2018-05-18T13:26:18.506Z,15.04
2018-05-18T13:28:46.948Z,14.89
2018-05-18T13:31:15.383Z,14.84
2018-05-18T13:33:43.864Z,14.90
2018-05-18T13:36:12.280Z,14.83
2018-05-18T13:38:40.803Z,14.96
2018-05-18T13:41:09.200Z,14.97
2018-05-18T13:43:37.633Z,14.97
2018-05-18T13:46:06.089Z,14.98
2018-05-18T13:48:34.840Z,14.99
2018-05-18T13:51:03.300Z,15.02
2018-05-18T13:53:31.728Z,15.02
2018-05-18T13:56:00.208Z,15.00
2018-05-18T13:58:28.656Z,15.00
2018-05-18T14:00:57.075Z,15.03
2018-05-18T14:03:25.533Z,15.04
2018-05-18T14:05:54.007Z,15.07
2018-05-18T14:08:22.406Z,15.11
2018-05-18T14:10:50.873Z,15.13
2018-05-18T14:13:19.284Z,15.21
2018-05-18T14:15:47.719Z,15.20
2018-05-18T14:18:16.190Z,15.22
2018-05-18T14:20:44.617Z,15.20
2018-05-18T14:23:13.070Z,15.18
2018-05-18T14:25:41.524Z,15.18
2018-05-18T14:28:09.941Z,15.22
2018-05-18T14:30:38.369Z,15.19
2018-05-18T14:33:06.836Z,15.18
2018-05-18T14:35:35.258Z,15.21
2018-05-18T14:38:03.726Z,15.14
2018-05-18T14:40:32.227Z,15.22
2018-05-18T14:43:00.666Z,15.26
2018-05-18T14:45:29.097Z,15.19
2018-05-18T14:47:57.561Z,15.20
2018-05-18T14:50:25.985Z,15.15
2018-05-18T14:52:54.400Z,15.15
2018-05-18T14:55:22.860Z,15.09
2018-05-18T14:57:51.300Z,15.12
2018-05-18T15:00:19.744Z,15.14
2018-05-18T15:02:48.228Z,15.18
2018-05-18T15:05:16.662Z,15.16
2018-05-18T15:07:45.092Z,15.21
2018-05-18T15:10:13.548Z,15.21
2018-05-18T15:12:41.965Z,15.21
2018-05-18T15:15:10.409Z,15.27
2018-05-18T15:17:38.880Z,15.32
2018-05-18T15:20:07.304Z,15.39
2018-05-18T15:22:35.744Z,15.41
2018-05-18T15:25:04.249Z,15.46
2018-05-18T15:27:32.675Z,15.42
2018-05-18T15:30:01.097Z,15.38
2018-05-18T15:32:29.598Z,15.36
2018-05-18T15:34:58.046Z,15.35
2018-05-18T15:37:26.565Z,15.40
2018-05-18T15:39:54.999Z,15.46
2018-05-18T15:42:23.433Z,15.56
2018-05-18T15:44:51.879Z,15.56
2018-05-18T15:47:20.382Z,15.51
2018-05-18T15:49:48.808Z,15.61
2018-05-18T15:52:17.236Z,15.56
2018-05-18T15:54:45.738Z,15.57
2018-05-18T15:57:14.180Z,15.48
2018-05-18T15:59:42.613Z,15.56
2018-05-18T16:02:11.091Z,15.50
2018-05-18T16:04:39.508Z,15.49
2018-05-18T16:07:07.924Z,15.52
2018-05-18T16:09:36.392Z,15.48
2018-05-18T16:12:04.840Z,15.50
2018-05-18T16:14:33.264Z,15.57
2018-05-18T16:17:01.748Z,15.56
2018-05-18T16:19:30.181Z,15.57
2018-05-18T16:21:58.619Z,15.54
2018-05-18T16:24:27.108Z,15.53
2018-05-18T16:26:55.536Z,15.50
2018-05-18T16:29:23.964Z,15.53
2018-05-18T16:31:52.474Z,15.48
2018-05-18T16:34:20.899Z,15.41
2018-05-18T16:36:49.322Z,15.38
2018-05-18T16:39:17.772Z,15.35
2018-05-18T16:41:46.190Z,15.37
2018-05-18T16:44:14.626Z,15.37
2018-05-18T16:46:43.091Z,15.31
2018-05-18T16:49:11.516Z,15.27
2018-05-18T16:51:39.951Z,15.30
2018-05-18T16:54:08.413Z,15.27
2018-05-18T16:56:36.836Z,15.30
2018-05-18T16:59:05.278Z,15.38
2018-05-18T17:01:33.748Z,15.38
2018-05-18T17:04:02.180Z,15.29
2018-05-18T17:06:30.628Z,15.31
2018-05-18T17:08:59.123Z,15.41
2018-05-18T17:11:27.549Z,15.29
2018-05-18T17:13:55.972Z,15.25
2018-05-18T17:16:24.444Z,15.10
2018-05-18T17:18:53.078Z,15.18
2018-05-18T17:21:21.492Z,15.12
2018-05-18T17:23:49.972Z,15.03
2018-05-18T17:26:18.384Z,15.04
2018-05-18T17:28:46.800Z,15.00
2018-05-18T17:31:15.280Z,14.95
2018-05-18T17:33:43.871Z,14.91
2018-05-18T17:36:12.357Z,14.88
2018-05-18T17:38:40.911Z,14.87
2018-05-18T17:41:09.348Z,14.82
2018-05-18T17:43:37.765Z,14.80
2018-05-18T17:46:06.246Z,14.81
2018-05-18T17:48:34.682Z,14.81
2018-05-18T17:51:03.099Z,14.78
2018-05-18T17:53:31.570Z,14.76
2018-05-18T17:55:59.996Z,14.79
2018-05-18T17:58:28.814Z,14.85
2018-05-18T18:00:57.276Z,14.82
2018-05-18T18:03:25.700Z,14.76
2018-05-18T18:05:54.129Z,14.63
2018-05-18T18:08:22.588Z,14.63
2018-05-18T18:10:51.009Z,14.63
2018-05-18T18:13:19.514Z,14.60
2018-05-18T18:15:48.032Z,14.53
2018-05-18T18:18:16.496Z,14.52
2018-05-18T18:20:44.944Z,14.48
2018-05-18T18:23:13.415Z,14.47
2018-05-18T18:25:41.875Z,14.45
2018-05-18T18:28:10.298Z,14.42
2018-05-18T18:30:38.763Z,14.39
2018-05-18T18:33:07.197Z,14.37
2018-05-18T18:35:35.650Z,14.42
2018-05-18T18:38:04.126Z,14.42
2018-05-18T18:40:32.566Z,14.29
2018-05-18T18:43:01.036Z,14.18
2018-05-18T18:45:29.512Z,14.18
2018-05-18T18:47:57.976Z,14.30
2018-05-18T18:50:26.408Z,14.05
2018-05-18T18:52:54.884Z,13.97
2018-05-18T18:55:23.323Z,13.75
2018-05-18T18:57:51.754Z,13.93
2018-05-18T19:00:20.223Z,14.02
2018-05-18T19:02:48.655Z,14.09
2018-05-18T19:05:17.092Z,14.06
2018-05-18T19:07:45.560Z,13.83
2018-05-18T19:10:13.989Z,13.64
2018-05-18T19:12:42.417Z,13.62
2018-05-18T19:15:10.901Z,13.63
2018-05-18T19:17:39.334Z,13.76
2018-05-18T19:20:07.773Z,13.81
2018-05-18T19:22:36.272Z,13.83
2018-05-18T19:25:04.697Z,13.85
2018-05-18T19:27:33.184Z,13.84
2018-05-18T19:30:01.659Z,13.72
2018-05-18T19:32:30.088Z,13.73
2018-05-18T19:34:58.538Z,13.70
2018-05-18T19:37:27.063Z,13.76
2018-05-18T19:39:55.482Z,13.78
2018-05-18T19:42:23.903Z,13.77
2018-05-18T19:44:52.366Z,13.80
2018-05-18T19:47:20.817Z,13.77
2018-05-18T19:49:49.252Z,13.75
2018-05-18T19:52:17.745Z,13.71
2018-05-18T19:54:46.177Z,13.71
2018-05-18T19:57:14.622Z,13.69
2018-05-18T19:59:43.119Z,13.67
2018-05-18T20:02:11.540Z,13.62
2018-05-18T20:04:39.985Z,13.65
2018-05-18T20:07:08.474Z,13.64
2018-05-18T20:09:36.915Z,13.61
2018-05-18T20:12:05.353Z,13.62
2018-05-18T20:14:33.833Z,13.54
2018-05-18T20:17:02.488Z,13.49
2018-05-18T20:19:30.992Z,13.38
2018-05-18T20:21:59.471Z,13.33
2018-05-18T20:24:27.900Z,13.34
2018-05-18T20:26:56.340Z,13.44
2018-05-18T20:29:24.980Z,13.47
2018-05-18T20:31:53.400Z,13.54
2018-05-18T20:34:21.823Z,13.51
2018-05-18T20:36:50.290Z,13.51
2018-05-18T20:39:18.737Z,13.42
2018-05-18T20:41:47.159Z,13.36
2018-05-18T20:44:15.616Z,13.40
2018-05-18T20:46:44.034Z,13.48
2018-05-18T20:49:12.458Z,13.45
2018-05-18T20:51:40.956Z,13.45
2018-05-18T20:54:09.387Z,13.41
2018-05-18T20:56:37.828Z,13.36
2018-05-18T20:59:06.314Z,13.29
2018-05-18T21:01:34.741Z,13.34
2018-05-18T21:04:03.167Z,13.15
2018-05-18T21:06:31.638Z,13.03
2018-05-18T21:09:00.064Z,12.89
2018-05-18T21:11:28.513Z,12.79
2018-05-18T21:13:57.000Z,12.75
2018-05-18T21:16:25.429Z,12.64
2018-05-18T21:18:53.861Z,12.68
2018-05-18T21:21:22.388Z,12.86
2018-05-18T21:23:50.829Z,12.93
2018-05-18T21:26:19.276Z,12.80
2018-05-18T21:28:47.745Z,12.82
2018-05-18T21:31:16.164Z,12.61
2018-05-18T21:33:44.595Z,12.54
2018-05-18T21:36:13.086Z,12.55
2018-05-18T21:38:41.515Z,12.66
2018-05-18T21:41:09.945Z,12.62
2018-05-18T21:43:38.409Z,12.59
2018-05-18T21:46:06.876Z,12.53
2018-05-18T21:48:35.306Z,12.57
2018-05-18T21:51:03.770Z,12.56
2018-05-18T21:53:32.205Z,12.74
2018-05-18T21:56:00.628Z,12.86
2018-05-18T21:58:29.146Z,12.84
2018-05-18T22:00:57.553Z,12.80
2018-05-18T22:03:25.977Z,12.83
2018-05-18T22:05:54.440Z,12.87
2018-05-18T22:08:22.877Z,12.95
2018-05-18T22:10:51.307Z,13.00
2018-05-18T22:13:19.760Z,13.01
2018-05-18T22:15:48.190Z,13.01
2018-05-18T22:18:16.611Z,12.93
2018-05-18T22:20:45.089Z,12.88
2018-05-18T22:23:13.520Z,12.89
2018-05-18T22:25:41.949Z,12.94
2018-05-18T22:28:10.440Z,12.96
2018-05-18T22:30:38.869Z,12.93
2018-05-18T22:33:07.296Z,12.93
2018-05-18T22:35:35.869Z,12.89
2018-05-18T22:38:04.319Z,12.84
2018-05-18T22:40:32.758Z,12.82
2018-05-18T22:43:01.248Z,12.82
2018-05-18T22:45:29.675Z,12.88
2018-05-18T22:47:58.100Z,12.82
2018-05-18T22:50:26.576Z,12.81
2018-05-18T22:52:54.997Z,12.75
2018-05-18T22:55:23.429Z,12.76
2018-05-18T22:57:51.892Z,12.75
2018-05-18T23:00:28.952Z,12.69
2018-05-18T23:02:57.408Z,12.69
2018-05-18T23:05:25.836Z,12.60
2018-05-18T23:07:54.280Z,12.63
2018-05-18T23:10:22.741Z,12.59
2018-05-18T23:12:51.185Z,12.52
2018-05-18T23:15:19.950Z,12.52
2018-05-18T23:17:48.469Z,12.62
2018-05-18T23:20:16.905Z,12.58
2018-05-18T23:22:45.360Z,12.43
2018-05-18T23:25:13.849Z,12.41
2018-05-18T23:27:42.284Z,12.46
2018-05-18T23:30:10.707Z,12.39
2018-05-18T23:32:39.195Z,12.51
2018-05-18T23:35:07.625Z,12.47
2018-05-18T23:37:36.046Z,12.52
2018-05-18T23:40:04.529Z,12.45
2018-05-18T23:42:32.961Z,12.43
2018-05-18T23:45:01.389Z,12.36
2018-05-18T23:47:29.860Z,12.44
2018-05-18T23:49:58.277Z,12.46
2018-05-18T23:52:26.706Z,12.41
2018-05-18T23:54:55.209Z,12.35
2018-05-18T23:57:23.624Z,12.48
2018-05-18T23:59:52.048Z,12.43
